sensor_id;sensor_type;location;lat;lon;timestamp;temperature;humidity
6421;DHT22;3243;50.958;7.012;2023-04-24T00:01:08;12.20;99.90
6421;DHT22;3243;50.958;7.012;2023-04-24T00:03:36;12.20;99.90
6421;DHT22;3243;50.958;7.012;2023-04-24T00:06:04;12.20;99.90
6421;DHT22;3243;50.958;7.012;2023-04-24T00:08:31;12.20;99.90
6421;DHT22;3243;50.958;7.012;2023-04-24T00:10:58;12.20;99.90
6421;DHT22;3243;50.958;7.012;2023-04-24T00:15:55;12.20;99.90
6421;DHT22;3243;50.958;7.012;2023-04-24T00:20:49;12.20;99.90
6421;DHT22;3243;50.958;7.012;2023-04-24T00:23:16;12.20;99.90
6421;DHT22;3243;50.958;7.012;2023-04-24T00:25:42;12.10;99.90
6421;DHT22;3243;50.958;7.012;2023-04-24T00:30:36;12.00;99.90
6421;DHT22;3243;50.958;7.012;2023-04-24T00:33:03;11.90;99.90
6421;DHT22;3243;50.958;7.012;2023-04-24T00:37:57;12.00;99.90
6421;DHT22;3243;50.958;7.012;2023-04-24T00:40:23;12.00;99.90
6421;DHT22;3243;50.958;7.012;2023-04-24T00:42:50;12.00;99.90
6421;DHT22;3243;50.958;7.012;2023-04-24T00:45:17;12.00;99.90
6421;DHT22;3243;50.958;7.012;2023-04-24T00:47:45;12.00;99.90
6421;DHT22;3243;50.958;7.012;2023-04-24T00:50:14;12.00;99.90
6421;DHT22;3243;50.958;7.012;2023-04-24T00:52:41;12.00;99.90
6421;DHT22;3243;50.958;7.012;2023-04-24T00:55:08;12.00;99.90
6421;DHT22;3243;50.958;7.012;2023-04-24T01:00:03;12.00;99.90
6421;DHT22;3243;50.958;7.012;2023-04-24T01:02:32;12.00;99.90
6421;DHT22;3243;50.958;7.012;2023-04-24T01:07:29;12.00;99.90
6421;DHT22;3243;50.958;7.012;2023-04-24T01:09:56;11.90;99.90
6421;DHT22;3243;50.958;7.012;2023-04-24T01:12:23;12.00;99.90
6421;DHT22;3243;50.958;7.012;2023-04-24T01:14:50;12.00;99.90
6421;DHT22;3243;50.958;7.012;2023-04-24T01:17:17;12.00;99.90
6421;DHT22;3243;50.958;7.012;2023-04-24T01:22:14;12.00;99.90
6421;DHT22;3243;50.958;7.012;2023-04-24T01:24:42;12.00;99.90
6421;DHT22;3243;50.958;7.012;2023-04-24T01:27:10;12.00;99.90
6421;DHT22;3243;50.958;7.012;2023-04-24T01:29:37;12.00;99.90
6421;DHT22;3243;50.958;7.012;2023-04-24T01:32:05;12.00;99.90
6421;DHT22;3243;50.958;7.012;2023-04-24T01:34:32;12.00;99.90
6421;DHT22;3243;50.958;7.012;2023-04-24T01:39:26;11.90;99.90
6421;DHT22;3243;50.958;7.012;2023-04-24T01:41:55;11.80;99.90
6421;DHT22;3243;50.958;7.012;2023-04-24T01:44:23;11.70;99.90
6421;DHT22;3243;50.958;7.012;2023-04-24T01:46:50;11.70;99.90
6421;DHT22;3243;50.958;7.012;2023-04-24T01:51:44;11.60;99.90
6421;DHT22;3243;50.958;7.012;2023-04-24T01:54:11;11.50;99.90
6421;DHT22;3243;50.958;7.012;2023-04-24T01:56:42;11.40;99.90
6421;DHT22;3243;50.958;7.012;2023-04-24T01:59:10;11.30;99.90
6421;DHT22;3243;50.958;7.012;2023-04-24T02:04:06;11.10;99.90
6421;DHT22;3243;50.958;7.012;2023-04-24T02:09:01;10.90;99.90
6421;DHT22;3243;50.958;7.012;2023-04-24T02:13:55;10.70;99.90
6421;DHT22;3243;50.958;7.012;2023-04-24T02:21:16;10.60;99.90
6421;DHT22;3243;50.958;7.012;2023-04-24T02:23:43;10.50;99.90
6421;DHT22;3243;50.958;7.012;2023-04-24T02:31:04;10.30;99.90
6421;DHT22;3243;50.958;7.012;2023-04-24T02:33:31;10.20;99.90
6421;DHT22;3243;50.958;7.012;2023-04-24T02:38:25;10.10;99.90
6421;DHT22;3243;50.958;7.012;2023-04-24T02:40:52;10.10;99.90
6421;DHT22;3243;50.958;7.012;2023-04-24T02:45:46;10.10;99.90
6421;DHT22;3243;50.958;7.012;2023-04-24T02:58:02;10.20;99.90
6421;DHT22;3243;50.958;7.012;2023-04-24T03:00:29;10.30;99.90
6421;DHT22;3243;50.958;7.012;2023-04-24T03:05:23;10.30;99.90
6421;DHT22;3243;50.958;7.012;2023-04-24T03:10:19;10.40;99.90
6421;DHT22;3243;50.958;7.012;2023-04-24T03:12:46;10.40;99.90
6421;DHT22;3243;50.958;7.012;2023-04-24T03:20:07;10.50;99.90
6421;DHT22;3243;50.958;7.012;2023-04-24T03:25:02;10.30;99.90
6421;DHT22;3243;50.958;7.012;2023-04-24T03:34:51;10.30;99.90
6421;DHT22;3243;50.958;7.012;2023-04-24T03:39:45;10.40;99.90
6421;DHT22;3243;50.958;7.012;2023-04-24T03:44:39;10.30;99.90
6421;DHT22;3243;50.958;7.012;2023-04-24T03:47:05;10.20;99.90
6421;DHT22;3243;50.958;7.012;2023-04-24T03:49:32;10.10;99.90
6421;DHT22;3243;50.958;7.012;2023-04-24T03:56:53;10.10;99.90
6421;DHT22;3243;50.958;7.012;2023-04-24T04:01:47;10.10;99.90
6421;DHT22;3243;50.958;7.012;2023-04-24T04:04:13;10.20;99.90
6421;DHT22;3243;50.958;7.012;2023-04-24T04:11:36;10.20;99.90
6421;DHT22;3243;50.958;7.012;2023-04-24T04:16:30;10.20;99.90
6421;DHT22;3243;50.958;7.012;2023-04-24T04:23:51;10.10;99.90
6421;DHT22;3243;50.958;7.012;2023-04-24T04:26:18;10.20;99.90
6421;DHT22;3243;50.958;7.012;2023-04-24T04:31:14;10.10;99.90
6421;DHT22;3243;50.958;7.012;2023-04-24T04:36:08;10.20;99.90
6421;DHT22;3243;50.958;7.012;2023-04-24T04:38:35;10.20;99.90
6421;DHT22;3243;50.958;7.012;2023-04-24T04:45:58;10.10;99.90
6421;DHT22;3243;50.958;7.012;2023-04-24T04:55:46;10.10;99.90
6421;DHT22;3243;50.958;7.012;2023-04-24T05:13:10;10.20;99.90
6421;DHT22;3243;50.958;7.012;2023-04-24T05:15:39;10.20;99.90
6421;DHT22;3243;50.958;7.012;2023-04-24T05:18:06;10.20;99.90
6421;DHT22;3243;50.958;7.012;2023-04-24T05:20:33;10.20;99.90
6421;DHT22;3243;50.958;7.012;2023-04-24T05:25:27;10.30;99.90
6421;DHT22;3243;50.958;7.012;2023-04-24T05:35:15;10.40;99.90
6421;DHT22;3243;50.958;7.012;2023-04-24T05:40:10;10.30;99.90
6421;DHT22;3243;50.958;7.012;2023-04-24T05:42:37;10.40;99.90
6421;DHT22;3243;50.958;7.012;2023-04-24T05:45:04;10.30;99.90
6421;DHT22;3243;50.958;7.012;2023-04-24T05:49:58;10.30;99.90
6421;DHT22;3243;50.958;7.012;2023-04-24T05:52:25;10.30;99.90
6421;DHT22;3243;50.958;7.012;2023-04-24T05:54:52;10.20;99.90
6421;DHT22;3243;50.958;7.012;2023-04-24T05:57:19;10.20;99.90
6421;DHT22;3243;50.958;7.012;2023-04-24T06:04:40;10.10;99.90
6421;DHT22;3243;50.958;7.012;2023-04-24T06:09:34;10.10;99.90
6421;DHT22;3243;50.958;7.012;2023-04-24T06:12:00;10.20;99.90
6421;DHT22;3243;50.958;7.012;2023-04-24T06:14:27;10.10;99.90
6421;DHT22;3243;50.958;7.012;2023-04-24T06:21:48;10.20;99.90
6421;DHT22;3243;50.958;7.012;2023-04-24T06:24:15;10.10;99.90
6421;DHT22;3243;50.958;7.012;2023-04-24T06:34:04;10.00;99.90
6421;DHT22;3243;50.958;7.012;2023-04-24T06:36:31;10.00;99.90
6421;DHT22;3243;50.958;7.012;2023-04-24T06:41:28;10.00;99.90
6421;DHT22;3243;50.958;7.012;2023-04-24T06:46:22;9.90;99.90
6421;DHT22;3243;50.958;7.012;2023-04-24T06:48:53;9.90;99.90
6421;DHT22;3243;50.958;7.012;2023-04-24T06:51:26;9.90;99.90
6421;DHT22;3243;50.958;7.012;2023-04-24T06:53:53;9.80;99.90
6421;DHT22;3243;50.958;7.012;2023-04-24T06:56:20;9.70;99.90
6421;DHT22;3243;50.958;7.012;2023-04-24T07:03:41;9.60;99.90
6421;DHT22;3243;50.958;7.012;2023-04-24T07:06:09;9.50;99.90
6421;DHT22;3243;50.958;7.012;2023-04-24T07:08:37;9.50;99.90
6421;DHT22;3243;50.958;7.012;2023-04-24T07:13:32;9.60;99.90
6421;DHT22;3243;50.958;7.012;2023-04-24T07:18:26;9.60;99.90
6421;DHT22;3243;50.958;7.012;2023-04-24T07:20:52;9.60;99.90
6421;DHT22;3243;50.958;7.012;2023-04-24T07:25:46;9.60;99.90
6421;DHT22;3243;50.958;7.012;2023-04-24T07:30:40;9.60;99.90
6421;DHT22;3243;50.958;7.012;2023-04-24T07:40:28;9.50;99.90
6421;DHT22;3243;50.958;7.012;2023-04-24T07:45:23;9.30;99.90
6421;DHT22;3243;50.958;7.012;2023-04-24T07:50:19;9.20;99.90
6421;DHT22;3243;50.958;7.012;2023-04-24T07:52:46;9.10;99.90
6421;DHT22;3243;50.958;7.012;2023-04-24T07:55:13;8.90;99.90
6421;DHT22;3243;50.958;7.012;2023-04-24T08:00:08;8.70;99.90
6421;DHT22;3243;50.958;7.012;2023-04-24T08:05:02;8.60;99.90
6421;DHT22;3243;50.958;7.012;2023-04-24T08:07:30;8.50;99.90
6421;DHT22;3243;50.958;7.012;2023-04-24T08:14:52;8.30;99.90
6421;DHT22;3243;50.958;7.012;2023-04-24T08:24:44;8.30;99.90
6421;DHT22;3243;50.958;7.012;2023-04-24T08:41:55;7.90;99.90
6421;DHT22;3243;50.958;7.012;2023-04-24T08:49:18;7.90;99.90
6421;DHT22;3243;50.958;7.012;2023-04-24T08:51:45;7.90;99.90
6421;DHT22;3243;50.958;7.012;2023-04-24T08:54:14;8.00;99.90
6421;DHT22;3243;50.958;7.012;2023-04-24T08:56:44;8.00;99.90
6421;DHT22;3243;50.958;7.012;2023-04-24T09:01:40;8.00;99.90
6421;DHT22;3243;50.958;7.012;2023-04-24T09:04:08;8.00;99.90
6421;DHT22;3243;50.958;7.012;2023-04-24T09:06:39;8.10;99.90
6421;DHT22;3243;50.958;7.012;2023-04-24T09:09:07;8.10;99.90
6421;DHT22;3243;50.958;7.012;2023-04-24T09:11:34;8.10;99.90
6421;DHT22;3243;50.958;7.012;2023-04-24T09:14:03;8.10;99.90
6421;DHT22;3243;50.958;7.012;2023-04-24T09:19:02;8.20;99.90
6421;DHT22;3243;50.958;7.012;2023-04-24T09:21:34;8.10;99.90
6421;DHT22;3243;50.958;7.012;2023-04-24T09:24:06;8.20;99.90
6421;DHT22;3243;50.958;7.012;2023-04-24T09:26:36;8.40;99.90
6421;DHT22;3243;50.958;7.012;2023-04-24T09:29:04;8.40;99.90
6421;DHT22;3243;50.958;7.012;2023-04-24T09:31:31;8.40;99.90
6421;DHT22;3243;50.958;7.012;2023-04-24T09:34:03;8.50;99.90
6421;DHT22;3243;50.958;7.012;2023-04-24T09:36:36;8.50;99.90
6421;DHT22;3243;50.958;7.012;2023-04-24T09:39:09;8.60;99.90
6421;DHT22;3243;50.958;7.012;2023-04-24T09:41:53;8.60;99.90
6421;DHT22;3243;50.958;7.012;2023-04-24T09:44:22;8.70;99.90
6421;DHT22;3243;50.958;7.012;2023-04-24T09:49:30;8.80;99.90
6421;DHT22;3243;50.958;7.012;2023-04-24T09:52:04;8.80;99.90
6421;DHT22;3243;50.958;7.012;2023-04-24T09:54:31;8.90;99.90
6421;DHT22;3243;50.958;7.012;2023-04-24T09:56:58;8.90;99.90
6421;DHT22;3243;50.958;7.012;2023-04-24T09:59:26;8.90;99.90
6421;DHT22;3243;50.958;7.012;2023-04-24T10:01:53;9.00;99.90
6421;DHT22;3243;50.958;7.012;2023-04-24T10:04:21;9.10;99.90
6421;DHT22;3243;50.958;7.012;2023-04-24T10:06:51;9.20;99.90
6421;DHT22;3243;50.958;7.012;2023-04-24T10:09:20;9.40;99.90
6421;DHT22;3243;50.958;7.012;2023-04-24T10:11:49;9.50;99.90
6421;DHT22;3243;50.958;7.012;2023-04-24T10:14:21;9.50;99.90
6421;DHT22;3243;50.958;7.012;2023-04-24T10:16:49;9.50;99.90
6421;DHT22;3243;50.958;7.012;2023-04-24T10:19:17;9.60;99.90
6421;DHT22;3243;50.958;7.012;2023-04-24T10:21:47;9.80;99.90
6421;DHT22;3243;50.958;7.012;2023-04-24T10:24:15;9.90;99.90
6421;DHT22;3243;50.958;7.012;2023-04-24T10:26:43;10.10;99.90
6421;DHT22;3243;50.958;7.012;2023-04-24T10:29:11;10.30;99.90
6421;DHT22;3243;50.958;7.012;2023-04-24T10:31:39;10.50;99.90
6421;DHT22;3243;50.958;7.012;2023-04-24T10:34:09;10.40;99.90
6421;DHT22;3243;50.958;7.012;2023-04-24T10:36:41;10.80;99.90
6421;DHT22;3243;50.958;7.012;2023-04-24T10:39:14;10.90;99.90
6421;DHT22;3243;50.958;7.012;2023-04-24T10:41:42;11.20;1.00
6421;DHT22;3243;50.958;7.012;2023-04-24T10:44:14;11.20;1.00
6421;DHT22;3243;50.958;7.012;2023-04-24T10:46:47;11.10;1.00
6421;DHT22;3243;50.958;7.012;2023-04-24T10:49:30;11.00;43.50
6421;DHT22;3243;50.958;7.012;2023-04-24T10:52:02;10.70;1.00
6421;DHT22;3243;50.958;7.012;2023-04-24T10:54:46;10.60;1.00
6421;DHT22;3243;50.958;7.012;2023-04-24T10:59:51;10.40;99.90
6421;DHT22;3243;50.958;7.012;2023-04-24T11:02:19;10.40;99.90
6421;DHT22;3243;50.958;7.012;2023-04-24T11:05:05;10.40;99.90
6421;DHT22;3243;50.958;7.012;2023-04-24T11:08:14;10.40;99.90
6421;DHT22;3243;50.958;7.012;2023-04-24T11:10:47;10.20;99.90
6421;DHT22;3243;50.958;7.012;2023-04-24T11:13:17;10.20;99.90
6421;DHT22;3243;50.958;7.012;2023-04-24T11:18:51;10.10;99.90
6421;DHT22;3243;50.958;7.012;2023-04-24T11:21:22;9.80;99.90
6421;DHT22;3243;50.958;7.012;2023-04-24T11:23:49;9.70;99.90
6421;DHT22;3243;50.958;7.012;2023-04-24T11:26:22;9.40;99.90
6421;DHT22;3243;50.958;7.012;2023-04-24T11:28:51;9.40;99.90
6421;DHT22;3243;50.958;7.012;2023-04-24T11:31:37;9.30;99.90
6421;DHT22;3243;50.958;7.012;2023-04-24T11:34:12;9.60;99.90
6421;DHT22;3243;50.958;7.012;2023-04-24T11:36:46;9.90;99.90
6421;DHT22;3243;50.958;7.012;2023-04-24T11:39:14;10.40;99.90
6421;DHT22;3243;50.958;7.012;2023-04-24T11:41:41;10.80;99.90
6421;DHT22;3243;50.958;7.012;2023-04-24T11:44:09;11.10;99.90
6421;DHT22;3243;50.958;7.012;2023-04-24T11:46:36;8.60;1.00
6421;DHT22;3243;50.958;7.012;2023-04-24T11:49:04;11.00;99.90
6421;DHT22;3243;50.958;7.012;2023-04-24T11:51:32;10.80;1.00
6421;DHT22;3243;50.958;7.012;2023-04-24T11:54:16;10.60;99.90
6421;DHT22;3243;50.958;7.012;2023-04-24T11:56:47;10.30;99.90
6421;DHT22;3243;50.958;7.012;2023-04-24T11:59:14;10.50;99.90
6421;DHT22;3243;50.958;7.012;2023-04-24T12:01:48;10.40;99.90
6421;DHT22;3243;50.958;7.012;2023-04-24T12:04:16;10.40;99.90
6421;DHT22;3243;50.958;7.012;2023-04-24T12:07:03;10.50;99.90
6421;DHT22;3243;50.958;7.012;2023-04-24T12:09:43;10.90;99.90
6421;DHT22;3243;50.958;7.012;2023-04-24T12:12:14;11.30;99.90
6421;DHT22;3243;50.958;7.012;2023-04-24T12:14:43;11.50;99.90
6421;DHT22;3243;50.958;7.012;2023-04-24T12:17:10;11.90;99.90
6421;DHT22;3243;50.958;7.012;2023-04-24T12:19:36;11.80;1.00
6421;DHT22;3243;50.958;7.012;2023-04-24T12:22:05;11.60;25.10
6421;DHT22;3243;50.958;7.012;2023-04-24T12:24:32;11.60;1.00
6421;DHT22;3243;50.958;7.012;2023-04-24T12:26:59;11.60;99.90
6421;DHT22;3243;50.958;7.012;2023-04-24T12:29:27;11.60;99.90
6421;DHT22;3243;50.958;7.012;2023-04-24T12:31:54;11.80;99.90
6421;DHT22;3243;50.958;7.012;2023-04-24T12:34:23;11.90;99.90
6421;DHT22;3243;50.958;7.012;2023-04-24T12:36:51;12.00;99.90
6421;DHT22;3243;50.958;7.012;2023-04-24T12:39:19;12.30;99.90
6421;DHT22;3243;50.958;7.012;2023-04-24T12:41:56;12.60;1.00
6421;DHT22;3243;50.958;7.012;2023-04-24T12:44:31;13.00;1.00
6421;DHT22;3243;50.958;7.012;2023-04-24T12:46:58;13.00;1.00
6421;DHT22;3243;50.958;7.012;2023-04-24T12:49:24;13.10;20.50
6421;DHT22;3243;50.958;7.012;2023-04-24T12:51:51;13.20;99.90
6421;DHT22;3243;50.958;7.012;2023-04-24T12:54:18;13.20;1.00
6421;DHT22;3243;50.958;7.012;2023-04-24T12:56:45;13.10;1.00
6421;DHT22;3243;50.958;7.012;2023-04-24T12:59:11;12.80;1.00
6421;DHT22;3243;50.958;7.012;2023-04-24T13:01:38;12.70;99.90
6421;DHT22;3243;50.958;7.012;2023-04-24T13:04:05;12.40;1.00
6421;DHT22;3243;50.958;7.012;2023-04-24T13:06:32;12.20;1.00
6421;DHT22;3243;50.958;7.012;2023-04-24T13:08:59;12.20;1.00
6421;DHT22;3243;50.958;7.012;2023-04-24T13:11:26;12.50;99.90
6421;DHT22;3243;50.958;7.012;2023-04-24T13:13:53;12.90;99.90
6421;DHT22;3243;50.958;7.012;2023-04-24T13:16:21;14.30;1.00
6421;DHT22;3243;50.958;7.012;2023-04-24T13:18:49;13.30;1.00
6421;DHT22;3243;50.958;7.012;2023-04-24T13:21:16;13.00;1.00
6421;DHT22;3243;50.958;7.012;2023-04-24T13:23:43;12.90;99.90
6421;DHT22;3243;50.958;7.012;2023-04-24T13:26:10;12.80;99.90
6421;DHT22;3243;50.958;7.012;2023-04-24T13:28:37;12.70;99.90
6421;DHT22;3243;50.958;7.012;2023-04-24T13:31:04;16.90;99.90
6421;DHT22;3243;50.958;7.012;2023-04-24T13:33:32;12.80;99.90
6421;DHT22;3243;50.958;7.012;2023-04-24T13:35:59;12.80;99.90
6421;DHT22;3243;50.958;7.012;2023-04-24T13:38:26;12.70;99.90
6421;DHT22;3243;50.958;7.012;2023-04-24T13:40:53;13.00;99.90
6421;DHT22;3243;50.958;7.012;2023-04-24T13:43:19;13.00;99.90
6421;DHT22;3243;50.958;7.012;2023-04-24T13:45:46;12.80;99.90
6421;DHT22;3243;50.958;7.012;2023-04-24T13:48:13;12.70;99.90
6421;DHT22;3243;50.958;7.012;2023-04-24T13:50:42;12.70;99.90
6421;DHT22;3243;50.958;7.012;2023-04-24T13:53:09;12.80;99.90
6421;DHT22;3243;50.958;7.012;2023-04-24T13:55:36;12.70;99.90
6421;DHT22;3243;50.958;7.012;2023-04-24T13:58:03;12.80;99.90
6421;DHT22;3243;50.958;7.012;2023-04-24T14:00:31;12.80;99.90
6421;DHT22;3243;50.958;7.012;2023-04-24T14:02:58;12.90;99.90
6421;DHT22;3243;50.958;7.012;2023-04-24T14:05:25;13.10;99.90
6421;DHT22;3243;50.958;7.012;2023-04-24T14:07:52;13.00;1.00
6421;DHT22;3243;50.958;7.012;2023-04-24T14:10:18;13.20;1.00
6421;DHT22;3243;50.958;7.012;2023-04-24T14:12:45;13.30;1.00
6421;DHT22;3243;50.958;7.012;2023-04-24T14:15:12;13.70;1.00
6421;DHT22;3243;50.958;7.012;2023-04-24T14:17:39;13.80;1.00
6421;DHT22;3243;50.958;7.012;2023-04-24T14:20:07;13.90;99.90
6421;DHT22;3243;50.958;7.012;2023-04-24T14:22:33;13.90;99.90
6421;DHT22;3243;50.958;7.012;2023-04-24T14:25:00;13.60;99.90
6421;DHT22;3243;50.958;7.012;2023-04-24T14:27:27;13.10;99.90
6421;DHT22;3243;50.958;7.012;2023-04-24T14:29:54;12.80;99.90
6421;DHT22;3243;50.958;7.012;2023-04-24T14:32:21;12.80;99.90
6421;DHT22;3243;50.958;7.012;2023-04-24T14:34:48;12.90;99.90
6421;DHT22;3243;50.958;7.012;2023-04-24T14:37:15;12.90;99.90
6421;DHT22;3243;50.958;7.012;2023-04-24T14:39:41;13.10;99.90
6421;DHT22;3243;50.958;7.012;2023-04-24T14:42:13;13.30;99.90
6421;DHT22;3243;50.958;7.012;2023-04-24T14:44:40;13.80;99.90
6421;DHT22;3243;50.958;7.012;2023-04-24T14:47:06;13.90;99.90
6421;DHT22;3243;50.958;7.012;2023-04-24T14:49:33;13.80;99.90
6421;DHT22;3243;50.958;7.012;2023-04-24T14:52:00;13.70;99.90
6421;DHT22;3243;50.958;7.012;2023-04-24T14:54:29;13.70;99.90
6421;DHT22;3243;50.958;7.012;2023-04-24T14:56:57;13.90;99.90
6421;DHT22;3243;50.958;7.012;2023-04-24T14:59:24;13.80;99.90
6421;DHT22;3243;50.958;7.012;2023-04-24T15:01:50;13.70;99.90
6421;DHT22;3243;50.958;7.012;2023-04-24T15:04:34;13.60;99.90
6421;DHT22;3243;50.958;7.012;2023-04-24T15:07:01;13.60;99.90
6421;DHT22;3243;50.958;7.012;2023-04-24T15:09:28;13.60;99.90
6421;DHT22;3243;50.958;7.012;2023-04-24T15:11:55;13.50;99.90
6421;DHT22;3243;50.958;7.012;2023-04-24T15:14:21;13.80;99.90
6421;DHT22;3243;50.958;7.012;2023-04-24T15:16:48;13.70;99.90
6421;DHT22;3243;50.958;7.012;2023-04-24T15:19:15;13.60;99.90
6421;DHT22;3243;50.958;7.012;2023-04-24T15:21:42;13.40;99.90
6421;DHT22;3243;50.958;7.012;2023-04-24T15:24:09;13.30;99.90
6421;DHT22;3243;50.958;7.012;2023-04-24T15:26:36;13.30;99.90
6421;DHT22;3243;50.958;7.012;2023-04-24T15:29:03;13.50;99.90
6421;DHT22;3243;50.958;7.012;2023-04-24T15:31:29;13.40;99.90
6421;DHT22;3243;50.958;7.012;2023-04-24T15:33:56;13.50;99.90
6421;DHT22;3243;50.958;7.012;2023-04-24T15:36:23;13.60;99.90
6421;DHT22;3243;50.958;7.012;2023-04-24T15:38:50;13.60;99.90
6421;DHT22;3243;50.958;7.012;2023-04-24T15:41:17;13.40;99.90
6421;DHT22;3243;50.958;7.012;2023-04-24T15:43:43;13.30;99.90
6421;DHT22;3243;50.958;7.012;2023-04-24T15:46:11;13.20;99.90
6421;DHT22;3243;50.958;7.012;2023-04-24T15:48:37;13.30;99.90
6421;DHT22;3243;50.958;7.012;2023-04-24T15:51:07;13.40;99.90
6421;DHT22;3243;50.958;7.012;2023-04-24T15:53:34;13.40;99.90
6421;DHT22;3243;50.958;7.012;2023-04-24T15:56:01;13.40;99.90
6421;DHT22;3243;50.958;7.012;2023-04-24T15:58:28;13.30;99.90
6421;DHT22;3243;50.958;7.012;2023-04-24T16:00:54;13.60;99.90
6421;DHT22;3243;50.958;7.012;2023-04-24T16:03:21;13.50;99.90
6421;DHT22;3243;50.958;7.012;2023-04-24T16:05:49;13.60;99.90
6421;DHT22;3243;50.958;7.012;2023-04-24T16:08:15;13.60;99.90
6421;DHT22;3243;50.958;7.012;2023-04-24T16:10:44;13.50;99.90
6421;DHT22;3243;50.958;7.012;2023-04-24T16:13:13;13.30;99.90
6421;DHT22;3243;50.958;7.012;2023-04-24T16:15:40;13.20;99.90
6421;DHT22;3243;50.958;7.012;2023-04-24T16:18:07;13.10;99.90
6421;DHT22;3243;50.958;7.012;2023-04-24T16:20:34;13.30;99.90
6421;DHT22;3243;50.958;7.012;2023-04-24T16:23:01;13.20;99.90
6421;DHT22;3243;50.958;7.012;2023-04-24T16:25:27;13.30;99.90
6421;DHT22;3243;50.958;7.012;2023-04-24T16:27:54;13.30;99.90
6421;DHT22;3243;50.958;7.012;2023-04-24T16:30:22;13.20;99.90
6421;DHT22;3243;50.958;7.012;2023-04-24T16:32:49;13.30;99.90
6421;DHT22;3243;50.958;7.012;2023-04-24T16:35:16;13.30;99.90
6421;DHT22;3243;50.958;7.012;2023-04-24T16:37:42;13.30;99.90
6421;DHT22;3243;50.958;7.012;2023-04-24T16:40:09;13.30;99.90
6421;DHT22;3243;50.958;7.012;2023-04-24T16:42:38;13.40;99.90
6421;DHT22;3243;50.958;7.012;2023-04-24T16:45:05;13.10;99.90
6421;DHT22;3243;50.958;7.012;2023-04-24T16:47:32;13.20;99.90
6421;DHT22;3243;50.958;7.012;2023-04-24T16:49:59;13.10;99.90
6421;DHT22;3243;50.958;7.012;2023-04-24T16:52:26;12.90;99.90
6421;DHT22;3243;50.958;7.012;2023-04-24T16:54:52;12.90;99.90
6421;DHT22;3243;50.958;7.012;2023-04-24T16:57:19;12.90;99.90
6421;DHT22;3243;50.958;7.012;2023-04-24T16:59:46;12.70;99.90
6421;DHT22;3243;50.958;7.012;2023-04-24T17:02:12;12.50;99.90
6421;DHT22;3243;50.958;7.012;2023-04-24T17:04:39;12.50;99.90
6421;DHT22;3243;50.958;7.012;2023-04-24T17:07:07;12.40;99.90
6421;DHT22;3243;50.958;7.012;2023-04-24T17:09:33;12.50;99.90
6421;DHT22;3243;50.958;7.012;2023-04-24T17:12:00;12.50;99.90
6421;DHT22;3243;50.958;7.012;2023-04-24T17:14:28;12.60;99.90
6421;DHT22;3243;50.958;7.012;2023-04-24T17:16:55;12.70;99.90
6421;DHT22;3243;50.958;7.012;2023-04-24T17:19:22;12.80;99.90
6421;DHT22;3243;50.958;7.012;2023-04-24T17:21:48;12.70;99.90
6421;DHT22;3243;50.958;7.012;2023-04-24T17:24:15;12.70;99.90
6421;DHT22;3243;50.958;7.012;2023-04-24T17:26:42;12.60;99.90
6421;DHT22;3243;50.958;7.012;2023-04-24T17:29:09;12.40;99.90
6421;DHT22;3243;50.958;7.012;2023-04-24T17:31:36;12.40;99.90
6421;DHT22;3243;50.958;7.012;2023-04-24T17:34:03;12.30;99.90
6421;DHT22;3243;50.958;7.012;2023-04-24T17:36:30;12.30;99.90
6421;DHT22;3243;50.958;7.012;2023-04-24T17:38:57;12.40;99.90
6421;DHT22;3243;50.958;7.012;2023-04-24T17:41:24;12.40;99.90
6421;DHT22;3243;50.958;7.012;2023-04-24T17:43:51;12.40;99.90
6421;DHT22;3243;50.958;7.012;2023-04-24T17:46:17;12.40;99.90
6421;DHT22;3243;50.958;7.012;2023-04-24T17:51:14;12.20;99.90
6421;DHT22;3243;50.958;7.012;2023-04-24T17:53:41;12.10;99.90
6421;DHT22;3243;50.958;7.012;2023-04-24T17:56:08;12.00;99.90
6421;DHT22;3243;50.958;7.012;2023-04-24T17:58:35;12.00;99.90
6421;DHT22;3243;50.958;7.012;2023-04-24T18:01:02;12.00;99.90
6421;DHT22;3243;50.958;7.012;2023-04-24T18:03:28;11.90;99.90
6421;DHT22;3243;50.958;7.012;2023-04-24T18:05:56;11.80;99.90
6421;DHT22;3243;50.958;7.012;2023-04-24T18:08:23;11.80;99.90
6421;DHT22;3243;50.958;7.012;2023-04-24T18:10:49;11.60;99.90
6421;DHT22;3243;50.958;7.012;2023-04-24T18:13:16;11.70;99.90
6421;DHT22;3243;50.958;7.012;2023-04-24T18:15:43;11.60;99.90
6421;DHT22;3243;50.958;7.012;2023-04-24T18:18:10;11.50;99.90
6421;DHT22;3243;50.958;7.012;2023-04-24T18:20:38;11.40;99.90
6421;DHT22;3243;50.958;7.012;2023-04-24T18:23:05;11.30;99.90
6421;DHT22;3243;50.958;7.012;2023-04-24T18:25:32;11.20;99.90
6421;DHT22;3243;50.958;7.012;2023-04-24T18:27:59;11.20;99.90
6421;DHT22;3243;50.958;7.012;2023-04-24T18:32:53;11.00;99.90
6421;DHT22;3243;50.958;7.012;2023-04-24T18:37:49;10.90;99.90
6421;DHT22;3243;50.958;7.012;2023-04-24T18:40:16;10.90;99.90
6421;DHT22;3243;50.958;7.012;2023-04-24T18:42:43;10.90;99.90
6421;DHT22;3243;50.958;7.012;2023-04-24T18:45:11;10.80;99.90
6421;DHT22;3243;50.958;7.012;2023-04-24T18:47:41;10.70;99.90
6421;DHT22;3243;50.958;7.012;2023-04-24T18:50:08;10.60;99.90
6421;DHT22;3243;50.958;7.012;2023-04-24T18:52:35;10.50;99.90
6421;DHT22;3243;50.958;7.012;2023-04-24T18:55:02;10.50;99.90
6421;DHT22;3243;50.958;7.012;2023-04-24T18:57:29;10.40;99.90
6421;DHT22;3243;50.958;7.012;2023-04-24T18:59:56;10.30;99.90
6421;DHT22;3243;50.958;7.012;2023-04-24T19:02:23;10.30;99.90
6421;DHT22;3243;50.958;7.012;2023-04-24T19:07:17;10.10;99.90
6421;DHT22;3243;50.958;7.012;2023-04-24T19:09:47;10.00;99.90
6421;DHT22;3243;50.958;7.012;2023-04-24T19:12:18;9.90;99.90
6421;DHT22;3243;50.958;7.012;2023-04-24T19:14:47;9.90;99.90
6421;DHT22;3243;50.958;7.012;2023-04-24T19:17:14;9.80;99.90
6421;DHT22;3243;50.958;7.012;2023-04-24T19:27:09;9.60;99.90
6421;DHT22;3243;50.958;7.012;2023-04-24T19:34:30;9.60;99.90
6421;DHT22;3243;50.958;7.012;2023-04-24T19:36:57;9.70;99.90
6421;DHT22;3243;50.958;7.012;2023-04-24T19:39:24;9.60;99.90
6421;DHT22;3243;50.958;7.012;2023-04-24T19:44:18;9.70;99.90
6421;DHT22;3243;50.958;7.012;2023-04-24T19:46:45;9.70;99.90
6421;DHT22;3243;50.958;7.012;2023-04-24T19:49:12;9.70;99.90
6421;DHT22;3243;50.958;7.012;2023-04-24T19:54:08;9.70;99.90
6421;DHT22;3243;50.958;7.012;2023-04-24T19:56:34;9.70;99.90
6421;DHT22;3243;50.958;7.012;2023-04-24T20:01:29;9.70;99.90
6421;DHT22;3243;50.958;7.012;2023-04-24T20:08:50;9.70;99.90
6421;DHT22;3243;50.958;7.012;2023-04-24T20:13:44;9.70;99.90
6421;DHT22;3243;50.958;7.012;2023-04-24T20:16:11;9.70;99.90
6421;DHT22;3243;50.958;7.012;2023-04-24T20:18:39;9.60;99.90
6421;DHT22;3243;50.958;7.012;2023-04-24T20:23:33;9.60;99.90
6421;DHT22;3243;50.958;7.012;2023-04-24T20:28:27;9.50;99.90
6421;DHT22;3243;50.958;7.012;2023-04-24T20:30:57;9.50;99.90
6421;DHT22;3243;50.958;7.012;2023-04-24T20:35:51;9.30;99.90
6421;DHT22;3243;50.958;7.012;2023-04-24T20:38:18;9.30;99.90
6421;DHT22;3243;50.958;7.012;2023-04-24T20:40:44;9.20;99.90
6421;DHT22;3243;50.958;7.012;2023-04-24T20:43:24;9.10;99.90
6421;DHT22;3243;50.958;7.012;2023-04-24T20:45:55;9.00;99.90
6421;DHT22;3243;50.958;7.012;2023-04-24T20:48:24;9.00;99.90
6421;DHT22;3243;50.958;7.012;2023-04-24T20:53:19;8.90;99.90
6421;DHT22;3243;50.958;7.012;2023-04-24T20:55:46;8.80;99.90
6421;DHT22;3243;50.958;7.012;2023-04-24T20:58:14;8.80;99.90
6421;DHT22;3243;50.958;7.012;2023-04-24T21:03:08;8.80;99.90
6421;DHT22;3243;50.958;7.012;2023-04-24T21:05:36;8.80;99.90
6421;DHT22;3243;50.958;7.012;2023-04-24T21:08:02;8.80;99.90